sensor_id;sensor_type;location;lat;lon;timestamp;P1;durP1;ratioP1;P2;durP2;ratioP2
62957;SDS011;49056;48.352;10.926;2024-01-30T00:02:02;4.10;;;1.30;;
62957;SDS011;49056;48.352;10.926;2024-01-30T00:07:23;2.03;;;1.20;;
62957;SDS011;49056;48.352;10.926;2024-01-30T00:12:43;3.28;;;1.45;;
62957;SDS011;49056;48.352;10.926;2024-01-30T00:18:03;3.45;;;1.40;;
62957;SDS011;49056;48.352;10.926;2024-01-30T00:23:24;3.97;;;1.35;;
62957;SDS011;49056;48.352;10.926;2024-01-30T00:28:44;2.05;;;1.33;;
62957;SDS011;49056;48.352;10.926;2024-01-30T00:34:04;2.62;;;1.27;;
62957;SDS011;49056;48.352;10.926;2024-01-30T00:39:25;2.10;;;1.10;;
62957;SDS011;49056;48.352;10.926;2024-01-30T00:44:45;2.30;;;1.20;;
62957;SDS011;49056;48.352;10.926;2024-01-30T00:50:05;2.05;;;1.55;;
62957;SDS011;49056;48.352;10.926;2024-01-30T00:55:26;1.87;;;0.98;;
62957;SDS011;49056;48.352;10.926;2024-01-30T01:00:46;3.47;;;1.50;;
62957;SDS011;49056;48.352;10.926;2024-01-30T01:06:06;1.37;;;0.90;;
62957;SDS011;49056;48.352;10.926;2024-01-30T01:11:27;2.60;;;1.33;;
62957;SDS011;49056;48.352;10.926;2024-01-30T01:16:47;2.67;;;1.60;;
62957;SDS011;49056;48.352;10.926;2024-01-30T01:22:07;2.90;;;1.52;;
62957;SDS011;49056;48.352;10.926;2024-01-30T01:27:28;3.20;;;1.08;;
62957;SDS011;49056;48.352;10.926;2024-01-30T01:32:48;2.37;;;1.30;;
62957;SDS011;49056;48.352;10.926;2024-01-30T01:38:14;3.50;;;1.37;;
62957;SDS011;49056;48.352;10.926;2024-01-30T01:43:35;2.30;;;1.23;;
62957;SDS011;49056;48.352;10.926;2024-01-30T01:48:55;2.87;;;1.27;;
62957;SDS011;49056;48.352;10.926;2024-01-30T01:54:16;4.35;;;1.55;;
62957;SDS011;49056;48.352;10.926;2024-01-30T01:59:37;2.13;;;1.17;;
62957;SDS011;49056;48.352;10.926;2024-01-30T02:04:57;2.60;;;1.40;;
62957;SDS011;49056;48.352;10.926;2024-01-30T02:10:18;1.83;;;1.15;;
62957;SDS011;49056;48.352;10.926;2024-01-30T02:15:38;3.90;;;1.20;;
62957;SDS011;49056;48.352;10.926;2024-01-30T02:20:59;2.78;;;1.60;;
62957;SDS011;49056;48.352;10.926;2024-01-30T02:26:21;4.15;;;1.45;;
62957;SDS011;49056;48.352;10.926;2024-01-30T02:31:42;2.17;;;1.52;;
62957;SDS011;49056;48.352;10.926;2024-01-30T02:37:02;4.35;;;1.90;;
62957;SDS011;49056;48.352;10.926;2024-01-30T02:42:23;2.12;;;1.25;;
62957;SDS011;49056;48.352;10.926;2024-01-30T02:47:43;4.10;;;1.67;;
62957;SDS011;49056;48.352;10.926;2024-01-30T02:53:03;3.17;;;1.37;;
62957;SDS011;49056;48.352;10.926;2024-01-30T02:58:24;2.77;;;1.47;;
62957;SDS011;49056;48.352;10.926;2024-01-30T03:03:44;3.28;;;1.25;;
62957;SDS011;49056;48.352;10.926;2024-01-30T03:09:04;2.72;;;1.80;;
62957;SDS011;49056;48.352;10.926;2024-01-30T03:14:24;4.40;;;1.77;;
62957;SDS011;49056;48.352;10.926;2024-01-30T03:19:45;3.25;;;1.50;;
62957;SDS011;49056;48.352;10.926;2024-01-30T03:25:05;2.72;;;1.55;;
62957;SDS011;49056;48.352;10.926;2024-01-30T03:30:26;3.03;;;1.55;;
62957;SDS011;49056;48.352;10.926;2024-01-30T03:35:46;2.83;;;1.25;;
62957;SDS011;49056;48.352;10.926;2024-01-30T03:41:09;3.60;;;1.60;;
62957;SDS011;49056;48.352;10.926;2024-01-30T03:46:30;2.87;;;1.48;;
62957;SDS011;49056;48.352;10.926;2024-01-30T03:51:50;2.22;;;1.20;;
62957;SDS011;49056;48.352;10.926;2024-01-30T03:57:10;2.40;;;1.40;;
62957;SDS011;49056;48.352;10.926;2024-01-30T04:02:31;2.20;;;1.10;;
62957;SDS011;49056;48.352;10.926;2024-01-30T04:07:51;5.70;;;1.93;;
62957;SDS011;49056;48.352;10.926;2024-01-30T04:13:12;1.85;;;1.33;;
62957;SDS011;49056;48.352;10.926;2024-01-30T04:18:32;1.95;;;1.42;;
62957;SDS011;49056;48.352;10.926;2024-01-30T04:23:53;3.00;;;1.33;;
62957;SDS011;49056;48.352;10.926;2024-01-30T04:29:13;1.62;;;0.95;;
62957;SDS011;49056;48.352;10.926;2024-01-30T04:34:34;2.10;;;1.47;;
62957;SDS011;49056;48.352;10.926;2024-01-30T04:39:54;3.90;;;1.57;;
62957;SDS011;49056;48.352;10.926;2024-01-30T04:45:14;1.30;;;0.80;;
62957;SDS011;49056;48.352;10.926;2024-01-30T04:50:35;3.00;;;1.35;;
62957;SDS011;49056;48.352;10.926;2024-01-30T04:55:56;2.78;;;1.58;;
62957;SDS011;49056;48.352;10.926;2024-01-30T05:01:16;1.90;;;1.20;;
62957;SDS011;49056;48.352;10.926;2024-01-30T05:06:37;1.37;;;1.00;;
62957;SDS011;49056;48.352;10.926;2024-01-30T05:11:57;3.45;;;1.55;;
62957;SDS011;49056;48.352;10.926;2024-01-30T05:17:18;3.45;;;1.37;;
62957;SDS011;49056;48.352;10.926;2024-01-30T05:22:38;1.98;;;1.00;;
62957;SDS011;49056;48.352;10.926;2024-01-30T05:28:04;2.20;;;1.15;;
62957;SDS011;49056;48.352;10.926;2024-01-30T05:33:25;1.90;;;0.90;;
62957;SDS011;49056;48.352;10.926;2024-01-30T05:38:45;2.30;;;1.00;;
62957;SDS011;49056;48.352;10.926;2024-01-30T05:44:05;3.15;;;1.25;;
62957;SDS011;49056;48.352;10.926;2024-01-30T05:49:26;1.08;;;0.88;;
62957;SDS011;49056;48.352;10.926;2024-01-30T05:54:46;2.22;;;0.90;;
62957;SDS011;49056;48.352;10.926;2024-01-30T06:00:06;1.67;;;1.10;;
62957;SDS011;49056;48.352;10.926;2024-01-30T06:05:27;1.67;;;0.95;;
62957;SDS011;49056;48.352;10.926;2024-01-30T06:10:47;5.05;;;1.60;;
62957;SDS011;49056;48.352;10.926;2024-01-30T06:16:09;2.58;;;1.12;;
62957;SDS011;49056;48.352;10.926;2024-01-30T06:21:30;3.12;;;1.45;;
62957;SDS011;49056;48.352;10.926;2024-01-30T06:26:51;1.60;;;1.10;;
62957;SDS011;49056;48.352;10.926;2024-01-30T06:32:12;1.30;;;0.60;;
62957;SDS011;49056;48.352;10.926;2024-01-30T06:37:32;2.67;;;1.35;;
62957;SDS011;49056;48.352;10.926;2024-01-30T06:42:52;2.90;;;1.30;;
62957;SDS011;49056;48.352;10.926;2024-01-30T06:48:12;2.87;;;1.33;;
62957;SDS011;49056;48.352;10.926;2024-01-30T06:53:33;1.25;;;0.82;;
62957;SDS011;49056;48.352;10.926;2024-01-30T06:58:53;1.98;;;1.02;;
62957;SDS011;49056;48.352;10.926;2024-01-30T07:04:13;1.27;;;0.80;;
62957;SDS011;49056;48.352;10.926;2024-01-30T07:09:33;2.35;;;0.90;;
62957;SDS011;49056;48.352;10.926;2024-01-30T07:14:56;2.97;;;1.17;;
62957;SDS011;49056;48.352;10.926;2024-01-30T07:20:16;2.67;;;1.30;;
62957;SDS011;49056;48.352;10.926;2024-01-30T07:25:37;0.93;;;0.60;;
62957;SDS011;49056;48.352;10.926;2024-01-30T07:30:57;2.17;;;0.98;;
62957;SDS011;49056;48.352;10.926;2024-01-30T07:36:17;1.95;;;1.08;;
62957;SDS011;49056;48.352;10.926;2024-01-30T07:41:38;1.20;;;0.73;;
62957;SDS011;49056;48.352;10.926;2024-01-30T07:46:58;1.17;;;0.62;;
62957;SDS011;49056;48.352;10.926;2024-01-30T07:52:19;1.15;;;0.50;;
62957;SDS011;49056;48.352;10.926;2024-01-30T07:57:40;2.25;;;0.85;;
62957;SDS011;49056;48.352;10.926;2024-01-30T08:03:00;1.27;;;0.88;;
62957;SDS011;49056;48.352;10.926;2024-01-30T08:08:20;2.27;;;0.90;;
62957;SDS011;49056;48.352;10.926;2024-01-30T08:13:40;1.73;;;0.60;;
62957;SDS011;49056;48.352;10.926;2024-01-30T08:19:01;1.23;;;0.52;;
62957;SDS011;49056;48.352;10.926;2024-01-30T08:24:21;1.20;;;0.70;;
62957;SDS011;49056;48.352;10.926;2024-01-30T08:29:41;3.03;;;0.50;;
62957;SDS011;49056;48.352;10.926;2024-01-30T08:35:02;1.67;;;0.60;;
62957;SDS011;49056;48.352;10.926;2024-01-30T08:40:25;0.88;;;0.37;;
62957;SDS011;49056;48.352;10.926;2024-01-30T08:45:45;0.57;;;0.50;;
62957;SDS011;49056;48.352;10.926;2024-01-30T08:51:06;0.75;;;0.32;;
62957;SDS011;49056;48.352;10.926;2024-01-30T08:56:28;0.50;;;0.30;;
62957;SDS011;49056;48.352;10.926;2024-01-30T09:01:49;0.40;;;0.22;;
62957;SDS011;49056;48.352;10.926;2024-01-30T09:07:09;1.30;;;0.53;;
62957;SDS011;49056;48.352;10.926;2024-01-30T09:12:30;0.50;;;0.40;;
62957;SDS011;49056;48.352;10.926;2024-01-30T09:17:50;0.65;;;0.37;;
62957;SDS011;49056;48.352;10.926;2024-01-30T09:23:11;0.67;;;0.30;;
62957;SDS011;49056;48.352;10.926;2024-01-30T09:28:31;0.63;;;0.33;;
62957;SDS011;49056;48.352;10.926;2024-01-30T09:33:51;2.40;;;0.63;;
62957;SDS011;49056;48.352;10.926;2024-01-30T09:39:14;0.95;;;0.45;;
62957;SDS011;49056;48.352;10.926;2024-01-30T09:44:34;1.20;;;0.60;;
62957;SDS011;49056;48.352;10.926;2024-01-30T09:49:56;0.60;;;0.20;;
62957;SDS011;49056;48.352;10.926;2024-01-30T09:55:16;1.87;;;0.50;;
62957;SDS011;49056;48.352;10.926;2024-01-30T10:00:37;0.60;;;0.40;;
62957;SDS011;49056;48.352;10.926;2024-01-30T10:05:57;0.85;;;0.52;;
62957;SDS011;49056;48.352;10.926;2024-01-30T10:11:17;1.17;;;0.47;;
62957;SDS011;49056;48.352;10.926;2024-01-30T10:16:38;1.50;;;0.82;;
62957;SDS011;49056;48.352;10.926;2024-01-30T10:21:59;3.22;;;0.55;;
62957;SDS011;49056;48.352;10.926;2024-01-30T10:27:26;0.77;;;0.40;;
62957;SDS011;49056;48.352;10.926;2024-01-30T10:32:47;3.00;;;0.82;;
62957;SDS011;49056;48.352;10.926;2024-01-30T10:38:07;2.00;;;0.50;;
62957;SDS011;49056;48.352;10.926;2024-01-30T10:43:32;0.43;;;0.25;;
62957;SDS011;49056;48.352;10.926;2024-01-30T10:48:57;0.37;;;0.30;;
62957;SDS011;49056;48.352;10.926;2024-01-30T10:54:20;0.90;;;0.37;;
62957;SDS011;49056;48.352;10.926;2024-01-30T10:59:42;1.60;;;0.60;;
62957;SDS011;49056;48.352;10.926;2024-01-30T11:05:04;0.75;;;0.60;;
62957;SDS011;49056;48.352;10.926;2024-01-30T11:10:24;1.33;;;0.50;;
62957;SDS011;49056;48.352;10.926;2024-01-30T11:15:47;0.55;;;0.35;;
62957;SDS011;49056;48.352;10.926;2024-01-30T11:21:07;0.75;;;0.30;;
62957;SDS011;49056;48.352;10.926;2024-01-30T11:26:27;2.80;;;0.70;;
62957;SDS011;49056;48.352;10.926;2024-01-30T11:31:52;1.42;;;0.70;;
62957;SDS011;49056;48.352;10.926;2024-01-30T11:37:13;0.75;;;0.40;;
62957;SDS011;49056;48.352;10.926;2024-01-30T11:42:35;0.98;;;0.50;;
62957;SDS011;49056;48.352;10.926;2024-01-30T11:47:57;0.80;;;0.50;;
62957;SDS011;49056;48.352;10.926;2024-01-30T11:53:17;0.77;;;0.57;;
62957;SDS011;49056;48.352;10.926;2024-01-30T11:58:38;1.00;;;0.47;;
62957;SDS011;49056;48.352;10.926;2024-01-30T12:04:02;0.90;;;0.60;;
62957;SDS011;49056;48.352;10.926;2024-01-30T12:09:23;0.65;;;0.40;;
62957;SDS011;49056;48.352;10.926;2024-01-30T12:14:43;0.88;;;0.37;;
62957;SDS011;49056;48.352;10.926;2024-01-30T12:25:24;1.30;;;0.60;;
62957;SDS011;49056;48.352;10.926;2024-01-30T12:30:44;0.85;;;0.50;;
62957;SDS011;49056;48.352;10.926;2024-01-30T12:36:05;1.67;;;0.50;;
62957;SDS011;49056;48.352;10.926;2024-01-30T12:41:26;1.27;;;0.47;;
62957;SDS011;49056;48.352;10.926;2024-01-30T12:46:48;0.73;;;0.60;;
62957;SDS011;49056;48.352;10.926;2024-01-30T12:52:09;1.65;;;0.43;;
62957;SDS011;49056;48.352;10.926;2024-01-30T12:57:29;1.00;;;0.83;;
62957;SDS011;49056;48.352;10.926;2024-01-30T13:02:49;0.60;;;0.50;;
62957;SDS011;49056;48.352;10.926;2024-01-30T13:08:10;0.50;;;0.30;;
62957;SDS011;49056;48.352;10.926;2024-01-30T13:13:30;2.40;;;0.70;;
62957;SDS011;49056;48.352;10.926;2024-01-30T13:18:50;1.48;;;0.70;;
62957;SDS011;49056;48.352;10.926;2024-01-30T13:24:11;1.15;;;0.98;;
62957;SDS011;49056;48.352;10.926;2024-01-30T13:29:32;1.48;;;0.90;;
62957;SDS011;49056;48.352;10.926;2024-01-30T13:34:52;0.90;;;0.47;;
62957;SDS011;49056;48.352;10.926;2024-01-30T13:40:12;2.43;;;0.90;;
62957;SDS011;49056;48.352;10.926;2024-01-30T13:45:34;1.55;;;0.88;;
62957;SDS011;49056;48.352;10.926;2024-01-30T13:50:54;1.67;;;0.77;;
62957;SDS011;49056;48.352;10.926;2024-01-30T13:56:14;2.10;;;1.00;;
62957;SDS011;49056;48.352;10.926;2024-01-30T14:01:35;1.27;;;0.65;;
62957;SDS011;49056;48.352;10.926;2024-01-30T14:06:55;1.58;;;0.60;;
62957;SDS011;49056;48.352;10.926;2024-01-30T14:12:15;1.48;;;0.68;;
62957;SDS011;49056;48.352;10.926;2024-01-30T14:17:36;0.43;;;0.40;;
62957;SDS011;49056;48.352;10.926;2024-01-30T14:22:56;1.27;;;0.77;;
62957;SDS011;49056;48.352;10.926;2024-01-30T14:28:17;1.70;;;0.73;;
62957;SDS011;49056;48.352;10.926;2024-01-30T14:33:37;2.22;;;0.70;;
62957;SDS011;49056;48.352;10.926;2024-01-30T14:38:58;0.43;;;0.37;;
62957;SDS011;49056;48.352;10.926;2024-01-30T14:44:18;1.02;;;0.40;;
62957;SDS011;49056;48.352;10.926;2024-01-30T14:49:38;1.35;;;0.57;;
62957;SDS011;49056;48.352;10.926;2024-01-30T14:54:59;1.08;;;0.55;;
62957;SDS011;49056;48.352;10.926;2024-01-30T15:00:19;0.77;;;0.55;;
62957;SDS011;49056;48.352;10.926;2024-01-30T15:05:39;0.75;;;0.50;;
62957;SDS011;49056;48.352;10.926;2024-01-30T15:11:00;0.93;;;0.50;;
62957;SDS011;49056;48.352;10.926;2024-01-30T15:16:20;2.15;;;0.65;;
62957;SDS011;49056;48.352;10.926;2024-01-30T15:21:41;2.20;;;0.70;;
62957;SDS011;49056;48.352;10.926;2024-01-30T15:27:01;1.27;;;0.50;;
62957;SDS011;49056;48.352;10.926;2024-01-30T15:32:21;0.82;;;0.50;;
62957;SDS011;49056;48.352;10.926;2024-01-30T15:37:42;1.92;;;0.90;;
62957;SDS011;49056;48.352;10.926;2024-01-30T15:43:02;1.00;;;0.60;;
62957;SDS011;49056;48.352;10.926;2024-01-30T15:48:22;1.40;;;0.63;;
62957;SDS011;49056;48.352;10.926;2024-01-30T15:53:42;1.67;;;0.90;;
62957;SDS011;49056;48.352;10.926;2024-01-30T15:59:03;1.20;;;0.73;;
62957;SDS011;49056;48.352;10.926;2024-01-30T16:04:23;1.45;;;0.60;;
62957;SDS011;49056;48.352;10.926;2024-01-30T16:09:45;0.82;;;0.43;;
62957;SDS011;49056;48.352;10.926;2024-01-30T16:15:05;2.87;;;0.88;;
62957;SDS011;49056;48.352;10.926;2024-01-30T16:20:25;0.50;;;0.40;;
62957;SDS011;49056;48.352;10.926;2024-01-30T16:25:46;1.30;;;0.50;;
62957;SDS011;49056;48.352;10.926;2024-01-30T16:31:06;1.95;;;0.85;;
62957;SDS011;49056;48.352;10.926;2024-01-30T16:36:26;1.30;;;0.80;;
62957;SDS011;49056;48.352;10.926;2024-01-30T16:41:47;3.17;;;0.80;;
62957;SDS011;49056;48.352;10.926;2024-01-30T16:47:07;1.60;;;0.62;;
62957;SDS011;49056;48.352;10.926;2024-01-30T16:52:27;0.77;;;0.60;;
62957;SDS011;49056;48.352;10.926;2024-01-30T16:57:48;1.77;;;0.55;;
62957;SDS011;49056;48.352;10.926;2024-01-30T17:03:08;2.40;;;0.70;;
62957;SDS011;49056;48.352;10.926;2024-01-30T17:08:28;1.73;;;0.73;;
62957;SDS011;49056;48.352;10.926;2024-01-30T17:13:49;1.30;;;0.57;;
62957;SDS011;49056;48.352;10.926;2024-01-30T17:19:09;1.75;;;0.90;;
62957;SDS011;49056;48.352;10.926;2024-01-30T17:24:30;0.70;;;0.50;;
62957;SDS011;49056;48.352;10.926;2024-01-30T17:29:50;1.45;;;0.57;;
62957;SDS011;49056;48.352;10.926;2024-01-30T17:35:10;0.60;;;0.60;;
62957;SDS011;49056;48.352;10.926;2024-01-30T17:40:30;2.47;;;0.90;;
62957;SDS011;49056;48.352;10.926;2024-01-30T17:45:52;2.35;;;1.02;;
62957;SDS011;49056;48.352;10.926;2024-01-30T17:51:12;2.42;;;0.73;;
62957;SDS011;49056;48.352;10.926;2024-01-30T17:56:33;1.10;;;0.77;;
62957;SDS011;49056;48.352;10.926;2024-01-30T18:01:53;0.97;;;0.60;;
62957;SDS011;49056;48.352;10.926;2024-01-30T18:07:13;3.43;;;1.77;;
62957;SDS011;49056;48.352;10.926;2024-01-30T18:12:34;1.50;;;0.80;;
62957;SDS011;49056;48.352;10.926;2024-01-30T18:17:54;2.00;;;0.88;;
62957;SDS011;49056;48.352;10.926;2024-01-30T18:23:15;1.92;;;0.93;;
62957;SDS011;49056;48.352;10.926;2024-01-30T18:28:35;1.37;;;0.70;;
62957;SDS011;49056;48.352;10.926;2024-01-30T18:33:55;1.62;;;0.93;;
62957;SDS011;49056;48.352;10.926;2024-01-30T18:39:16;1.87;;;0.80;;
62957;SDS011;49056;48.352;10.926;2024-01-30T18:44:36;1.20;;;0.83;;
62957;SDS011;49056;48.352;10.926;2024-01-30T18:49:56;2.17;;;0.97;;
62957;SDS011;49056;48.352;10.926;2024-01-30T18:55:17;1.85;;;0.80;;
62957;SDS011;49056;48.352;10.926;2024-01-30T19:00:37;1.10;;;0.70;;
62957;SDS011;49056;48.352;10.926;2024-01-30T19:06:00;3.05;;;0.77;;
62957;SDS011;49056;48.352;10.926;2024-01-30T19:11:20;1.37;;;0.45;;
62957;SDS011;49056;48.352;10.926;2024-01-30T19:16:41;1.15;;;0.80;;
62957;SDS011;49056;48.352;10.926;2024-01-30T19:22:01;1.87;;;0.83;;
62957;SDS011;49056;48.352;10.926;2024-01-30T19:27:21;1.80;;;1.13;;
62957;SDS011;49056;48.352;10.926;2024-01-30T19:32:42;0.68;;;0.60;;
62957;SDS011;49056;48.352;10.926;2024-01-30T19:38:02;1.10;;;0.60;;
62957;SDS011;49056;48.352;10.926;2024-01-30T19:43:23;1.42;;;0.80;;
62957;SDS011;49056;48.352;10.926;2024-01-30T19:48:44;1.42;;;1.05;;
62957;SDS011;49056;48.352;10.926;2024-01-30T19:54:04;1.57;;;1.00;;
62957;SDS011;49056;48.352;10.926;2024-01-30T19:59:24;2.28;;;1.30;;
62957;SDS011;49056;48.352;10.926;2024-01-30T20:04:45;1.55;;;1.00;;
62957;SDS011;49056;48.352;10.926;2024-01-30T20:10:06;2.60;;;0.90;;
62957;SDS011;49056;48.352;10.926;2024-01-30T20:15:26;1.65;;;0.90;;
62957;SDS011;49056;48.352;10.926;2024-01-30T20:20:48;1.52;;;1.20;;
62957;SDS011;49056;48.352;10.926;2024-01-30T20:26:09;1.33;;;0.93;;
62957;SDS011;49056;48.352;10.926;2024-01-30T20:31:29;1.23;;;0.80;;
62957;SDS011;49056;48.352;10.926;2024-01-30T20:36:49;1.17;;;0.73;;
62957;SDS011;49056;48.352;10.926;2024-01-30T20:42:10;2.03;;;0.85;;
62957;SDS011;49056;48.352;10.926;2024-01-30T20:47:30;1.90;;;0.85;;
62957;SDS011;49056;48.352;10.926;2024-01-30T20:52:51;1.23;;;0.80;;
62957;SDS011;49056;48.352;10.926;2024-01-30T20:58:12;1.83;;;1.00;;
62957;SDS011;49056;48.352;10.926;2024-01-30T21:03:32;1.08;;;0.75;;
62957;SDS011;49056;48.352;10.926;2024-01-30T21:08:52;3.17;;;1.23;;
62957;SDS011;49056;48.352;10.926;2024-01-30T21:14:12;1.85;;;0.70;;
62957;SDS011;49056;48.352;10.926;2024-01-30T21:19:33;2.35;;;0.77;;
62957;SDS011;49056;48.352;10.926;2024-01-30T21:24:53;1.70;;;1.05;;
62957;SDS011;49056;48.352;10.926;2024-01-30T21:30:13;1.35;;;0.95;;
62957;SDS011;49056;48.352;10.926;2024-01-30T21:35:34;1.90;;;0.70;;
62957;SDS011;49056;48.352;10.926;2024-01-30T21:40:54;1.65;;;0.90;;
62957;SDS011;49056;48.352;10.926;2024-01-30T21:46:24;2.00;;;1.10;;
62957;SDS011;49056;48.352;10.926;2024-01-30T21:51:45;1.33;;;0.68;;
62957;SDS011;49056;48.352;10.926;2024-01-30T21:57:05;1.58;;;0.73;;
62957;SDS011;49056;48.352;10.926;2024-01-30T22:02:25;2.65;;;0.93;;
62957;SDS011;49056;48.352;10.926;2024-01-30T22:07:46;2.58;;;0.82;;
62957;SDS011;49056;48.352;10.926;2024-01-30T22:13:06;1.08;;;0.68;;
62957;SDS011;49056;48.352;10.926;2024-01-30T22:18:26;2.12;;;1.05;;
62957;SDS011;49056;48.352;10.926;2024-01-30T22:23:47;2.03;;;1.00;;
62957;SDS011;49056;48.352;10.926;2024-01-30T22:29:07;1.52;;;0.70;;
62957;SDS011;49056;48.352;10.926;2024-01-30T22:34:27;2.60;;;1.00;;
62957;SDS011;49056;48.352;10.926;2024-01-30T22:39:48;1.42;;;0.93;;
62957;SDS011;49056;48.352;10.926;2024-01-30T22:45:08;1.48;;;0.82;;
62957;SDS011;49056;48.352;10.926;2024-01-30T22:50:28;2.00;;;1.00;;
62957;SDS011;49056;48.352;10.926;2024-01-30T22:55:49;2.15;;;0.90;;
62957;SDS011;49056;48.352;10.926;2024-01-30T23:01:09;3.15;;;1.10;;
62957;SDS011;49056;48.352;10.926;2024-01-30T23:06:29;1.70;;;0.97;;
62957;SDS011;49056;48.352;10.926;2024-01-30T23:11:49;1.70;;;0.80;;
62957;SDS011;49056;48.352;10.926;2024-01-30T23:17:10;2.28;;;0.95;;
62957;SDS011;49056;48.352;10.926;2024-01-30T23:22:31;3.12;;;1.48;;
62957;SDS011;49056;48.352;10.926;2024-01-30T23:27:51;1.65;;;1.20;;
62957;SDS011;49056;48.352;10.926;2024-01-30T23:33:12;1.48;;;0.80;;
62957;SDS011;49056;48.352;10.926;2024-01-30T23:38:33;1.95;;;1.00;;
62957;SDS011;49056;48.352;10.926;2024-01-30T23:43:53;1.77;;;0.93;;
62957;SDS011;49056;48.352;10.926;2024-01-30T23:49:14;1.60;;;1.05;;
62957;SDS011;49056;48.352;10.926;2024-01-30T23:54:34;1.75;;;0.90;;
62957;SDS011;49056;48.352;10.926;2024-01-30T23:59:54;2.12;;;0.93;;
